createdAt,value
2022-09-27T00:04:00.473Z,50.15
2022-09-27T00:09:02.521Z,50.74
2022-09-27T00:14:06.273Z,51.11
2022-09-27T00:19:13.785Z,50.31
2022-09-27T00:24:23.146Z,51.33
2022-09-27T00:29:25.150Z,52.11
2022-09-27T00:34:27.137Z,51.84
2022-09-27T00:39:29.241Z,51.67
2022-09-27T00:44:33.703Z,50.86
2022-09-27T00:49:41.381Z,50.54
2022-09-27T00:54:46.265Z,50.69
2022-09-27T00:59:57.732Z,50.87
2022-09-27T01:05:01.008Z,50.64
2022-09-27T01:10:04.078Z,50.98
2022-09-27T01:15:26.602Z,50.72
2022-09-27T01:20:50.580Z,50.51
2022-09-27T01:26:09.024Z,50.59
2022-09-27T01:31:24.325Z,50.11
2022-09-27T01:36:31.923Z,50.31
2022-09-27T01:41:53.044Z,50.04
2022-09-27T01:47:36.964Z,50.24
2022-09-27T01:53:07.100Z,49.83
2022-09-27T01:58:37.069Z,50.22
2022-09-27T02:03:49.205Z,50.72
2022-09-27T02:09:14.494Z,50.18
2022-09-27T02:14:45.266Z,50.21
2022-09-27T02:20:22.914Z,50.42
2022-09-27T02:26:05.742Z,51.26
2022-09-27T02:31:07.988Z,50.74
2022-09-27T02:36:12.118Z,49.38
2022-09-27T02:41:20.482Z,51.35
2022-09-27T02:46:50.364Z,50.07
2022-09-27T02:52:23.309Z,49.04
2022-09-27T02:58:03.031Z,48.96
2022-09-27T03:03:27.854Z,47.92
2022-09-27T03:08:37.404Z,50.18
2022-09-27T03:14:01.390Z,49.02
2022-09-27T03:19:02.425Z,48.03
2022-09-27T03:24:23.067Z,48.50
2022-09-27T03:29:31.510Z,48.95
2022-09-27T03:34:42.613Z,49.82
2022-09-27T03:39:44.573Z,51.11
2022-09-27T03:44:46.665Z,49.79
2022-09-27T03:49:49.187Z,49.83
2022-09-27T03:54:51.582Z,49.59
2022-09-27T03:59:53.754Z,50.88
2022-09-27T04:05:13.861Z,49.68
2022-09-27T04:10:16.898Z,49.40
2022-09-27T04:15:19.644Z,49.26
2022-09-27T04:20:24.549Z,49.58
2022-09-27T04:25:26.742Z,48.60
2022-09-27T04:30:32.217Z,48.99
2022-09-27T04:36:15.464Z,49.19
2022-09-27T04:41:32.878Z,48.26
2022-09-27T04:46:35.319Z,48.39
2022-09-27T04:51:37.792Z,48.29
2022-09-27T04:56:40.095Z,48.47
2022-09-27T05:01:43.113Z,49.89
2022-09-27T05:07:03.305Z,49.63
2022-09-27T05:12:12.149Z,48.53
2022-09-27T05:17:20.517Z,48.12
2022-09-27T05:22:40.821Z,48.26
2022-09-27T05:27:43.208Z,48.02
2022-09-27T05:32:50.209Z,47.42
2022-09-27T05:38:01.823Z,47.06
2022-09-27T05:43:06.629Z,45.90
2022-09-27T05:48:09.295Z,46.61
2022-09-27T05:53:20.296Z,47.79
2022-09-27T05:58:22.713Z,46.53
2022-09-27T06:03:33.074Z,44.63
2022-09-27T06:08:53.745Z,44.00
2022-09-27T06:13:57.534Z,42.71
2022-09-27T06:19:00.821Z,43.04
2022-09-27T06:24:03.109Z,41.19
2022-09-27T06:29:09.231Z,41.70
2022-09-27T06:34:14.156Z,41.72
2022-09-27T06:39:16.958Z,40.37
2022-09-27T06:44:37.321Z,41.71
2022-09-27T06:49:57.659Z,44.51
2022-09-27T06:55:04.837Z,46.02
2022-09-27T07:00:28.853Z,46.06
2022-09-27T07:05:57.162Z,45.77
2022-09-27T07:11:15.483Z,45.01
2022-09-27T07:16:19.308Z,42.93
2022-09-27T07:21:21.516Z,40.86
2022-09-27T07:26:23.893Z,39.33
2022-09-27T07:31:26.236Z,41.25
2022-09-27T07:36:31.056Z,41.96
2022-09-27T07:41:33.603Z,41.85
2022-09-27T07:46:35.594Z,43.19
2022-09-27T07:52:13.092Z,41.87
2022-09-27T07:57:23.839Z,39.40
2022-09-27T08:02:28.334Z,38.38
2022-09-27T08:07:32.927Z,38.11
2022-09-27T08:12:36.101Z,36.50
2022-09-27T08:17:38.900Z,37.37
2022-09-27T08:22:50.928Z,35.53
2022-09-27T08:28:03.721Z,34.47
2022-09-27T08:33:32.312Z,32.03
2022-09-27T08:38:35.543Z,32.89
2022-09-27T08:44:25.706Z,32.42
2022-09-27T08:50:26.683Z,32.76
2022-09-27T08:55:57.230Z,34.00
2022-09-27T09:01:14.876Z,33.37
2022-09-27T09:07:03.260Z,31.62
2022-09-27T09:12:37.609Z,31.55
2022-09-27T09:18:01.565Z,33.10
2022-09-27T09:23:34.123Z,31.72
2022-09-27T09:28:45.132Z,32.10
2022-09-27T09:33:55.294Z,29.55
2022-09-27T09:39:13.285Z,30.11
2022-09-27T09:44:29.569Z,27.78
2022-09-27T09:49:48.038Z,23.91
2022-09-27T09:55:01.150Z,24.02
2022-09-27T10:00:18.966Z,26.25
2022-09-27T10:05:27.227Z,24.17
2022-09-27T10:10:36.817Z,21.18
2022-09-27T10:16:14.055Z,16.61
2022-09-27T10:21:24.372Z,16.93
2022-09-27T10:26:27.683Z,13.78
2022-09-27T10:31:37.213Z,13.83
2022-09-27T10:37:21.903Z,12.38
2022-09-27T10:42:45.110Z,13.17
2022-09-27T10:47:47.625Z,12.02
2022-09-27T10:53:16.236Z,13.48
2022-09-27T10:58:33.551Z,12.34
2022-09-27T11:03:45.826Z,11.69
2022-09-27T11:08:48.897Z,10.26
2022-09-27T11:14:08.166Z,9.15
2022-09-27T11:19:39.256Z,10.09
2022-09-27T11:25:32.001Z,7.56
2022-09-27T11:30:58.491Z,5.47
2022-09-27T11:36:22.219Z,4.19
2022-09-27T11:42:14.200Z,2.57
2022-09-27T11:47:42.669Z,3.61
2022-09-27T11:53:09.463Z,0.23
2022-09-27T11:58:48.258Z,-5.04
2022-09-27T12:04:10.105Z,-5.37
2022-09-27T12:09:22.936Z,-4.38
2022-09-27T12:14:48.544Z,118.83
2022-09-27T12:19:54.546Z,-5.87
2022-09-27T12:25:17.064Z,-4.09
2022-09-27T12:30:34.251Z,-5.59
2022-09-27T12:35:47.165Z,117.74
2022-09-27T12:40:52.666Z,115.39
2022-09-27T12:46:24.327Z,117.45
2022-09-27T12:51:35.932Z,117.97
2022-09-27T12:57:01.272Z,117.19
2022-09-27T13:02:35.916Z,116.12
2022-09-27T13:08:09.081Z,114.65
2022-09-27T13:13:15.624Z,114.34
2022-09-27T13:18:53.227Z,115.26
2022-09-27T13:23:58.113Z,115.41
2022-09-27T13:29:22.230Z,115.87
2022-09-27T13:34:52.016Z,116.85
2022-09-27T13:40:16.749Z,-5.90
2022-09-27T13:45:40.610Z,-5.00
2022-09-27T13:50:56.311Z,-5.73
2022-09-27T13:55:59.561Z,-5.64
2022-09-27T14:01:18.884Z,-5.14
2022-09-27T14:06:28.130Z,-1.51
2022-09-27T14:11:36.342Z,-1.87
2022-09-27T14:16:48.297Z,-1.63
2022-09-27T14:22:14.598Z,-0.95
2022-09-27T14:27:37.191Z,0.76
2022-09-27T14:33:04.154Z,1.53
2022-09-27T14:38:38.984Z,1.29
2022-09-27T14:43:54.008Z,1.42
2022-09-27T14:48:56.418Z,1.55
2022-09-27T14:54:05.579Z,2.99
2022-09-27T14:59:16.205Z,2.45
2022-09-27T15:04:20.330Z,2.73
2022-09-27T15:09:23.025Z,4.10
2022-09-27T15:14:25.848Z,5.20
2022-09-27T15:19:29.850Z,4.77
2022-09-27T15:24:46.731Z,5.07
2022-09-27T15:29:53.256Z,5.51
2022-09-27T15:34:57.023Z,5.37
2022-09-27T15:40:08.758Z,6.26
2022-09-27T15:45:29.814Z,6.36
2022-09-27T15:50:33.820Z,7.94
2022-09-27T15:55:45.139Z,9.33
2022-09-27T16:00:55.768Z,10.43
2022-09-27T16:06:02.460Z,12.72
2022-09-27T16:11:06.079Z,13.92
2022-09-27T16:16:14.985Z,14.55
2022-09-27T16:21:17.627Z,15.03
2022-09-27T16:26:19.948Z,15.88
2022-09-27T16:31:22.353Z,16.25
2022-09-27T16:36:24.572Z,16.74
2022-09-27T16:41:26.709Z,18.98
2022-09-27T16:46:29.263Z,19.53
2022-09-27T16:51:50.021Z,19.65
2022-09-27T16:56:55.261Z,20.44
2022-09-27T17:01:58.380Z,20.82
2022-09-27T17:07:01.231Z,21.79
2022-09-27T17:12:03.383Z,23.03
2022-09-27T17:17:06.289Z,25.92
2022-09-27T17:22:08.690Z,27.03
2022-09-27T17:27:10.833Z,28.61
2022-09-27T17:32:13.656Z,28.50
2022-09-27T17:37:15.826Z,30.98
2022-09-27T17:42:19.119Z,31.45
2022-09-27T17:47:39.557Z,32.47
2022-09-27T17:52:41.999Z,35.25
2022-09-27T17:57:46.366Z,36.97
2022-09-27T18:02:48.662Z,37.59
2022-09-27T18:07:50.828Z,39.69
2022-09-27T18:12:53.805Z,39.57
2022-09-27T18:17:58.248Z,38.58
2022-09-27T18:23:00.905Z,38.69
2022-09-27T18:28:03.234Z,38.98
2022-09-27T18:33:05.298Z,39.69
2022-09-27T18:38:07.695Z,40.50
2022-09-27T18:43:09.727Z,41.44
2022-09-27T18:48:11.766Z,41.13
2022-09-27T18:53:13.962Z,40.22
2022-09-27T18:58:16.601Z,41.62
2022-09-27T19:03:18.708Z,40.59
2022-09-27T19:08:20.778Z,38.52
2022-09-27T19:13:27.832Z,38.56
2022-09-27T19:18:31.290Z,38.70
2022-09-27T19:23:33.556Z,39.01
2022-09-27T19:28:38.100Z,38.70
2022-09-27T19:33:41.390Z,39.30
2022-09-27T19:38:44.108Z,38.00
2022-09-27T19:43:51.948Z,37.37
2022-09-27T19:48:55.198Z,36.61
2022-09-27T19:53:57.328Z,36.48
2022-09-27T19:59:01.678Z,35.33
2022-09-27T20:04:05.856Z,35.74
2022-09-27T20:09:07.930Z,38.02
2022-09-27T20:14:10.008Z,42.54
2022-09-27T20:19:12.174Z,43.67
2022-09-27T20:24:17.186Z,43.10
2022-09-27T20:29:19.261Z,42.23
2022-09-27T20:34:21.326Z,42.03
2022-09-27T20:39:24.290Z,42.55
2022-09-27T20:44:26.239Z,42.93
2022-09-27T20:49:28.131Z,43.23
2022-09-27T20:54:30.057Z,43.42
2022-09-27T20:59:33.150Z,43.85
2022-09-27T21:04:35.299Z,43.13
2022-09-27T21:09:38.705Z,42.16
2022-09-27T21:14:40.633Z,42.45
2022-09-27T21:19:42.493Z,41.83
2022-09-27T21:24:44.372Z,41.74
2022-09-27T21:29:46.253Z,43.07
2022-09-27T21:34:48.138Z,41.91
2022-09-27T21:39:50.505Z,41.36
2022-09-27T21:44:52.358Z,41.34
2022-09-27T21:49:54.469Z,40.47
2022-09-27T21:54:56.361Z,40.57
2022-09-27T21:59:58.253Z,39.67
2022-09-27T22:05:00.249Z,38.57
2022-09-27T22:10:02.139Z,39.01
2022-09-27T22:15:04.453Z,39.27
2022-09-27T22:20:06.749Z,39.78
2022-09-27T22:25:08.791Z,38.46
2022-09-27T22:30:11.401Z,38.64
2022-09-27T22:35:13.405Z,38.28
2022-09-27T22:40:15.579Z,38.48
2022-09-27T22:45:18.558Z,38.83
2022-09-27T22:50:20.546Z,38.86
2022-09-27T22:55:22.443Z,38.80
2022-09-27T23:00:25.105Z,38.68
2022-09-27T23:05:27.528Z,40.33
2022-09-27T23:10:30.296Z,40.82
2022-09-27T23:15:33.098Z,41.97
2022-09-27T23:20:35.532Z,42.47
2022-09-27T23:25:37.521Z,43.32
2022-09-27T23:30:39.356Z,44.42
2022-09-27T23:35:41.364Z,44.48
2022-09-27T23:40:44.351Z,44.59
2022-09-27T23:45:46.261Z,46.14
2022-09-27T23:50:48.373Z,46.42
2022-09-27T23:56:13.518Z,46.99
